Terminal Aerodrome Forecast
Issued by NWS Portland, OR

Home | Current Version | Previous Version | Text Only | Print | Product List | Glossary On
Versions: 1 2 3 4 5 6 7 8 9 10 11 12 13 14 15 16 17 18
000
FTUS46 KPQR 211120
TAFAST
TAF
KAST 211120Z 2112/2212 30003KT 6SM HZ BKN025 OVC035
      TEMPO 2112/2114 SCT025 OVC035
     FM211800 32007KT P6SM SCT035 BKN050
     FM212300 31014KT P6SM SKC
     FM220600 34004KT P6SM OVC025=

USA.gov is the U.S. government's official web portal to all federal, state and local government web resources and services.